sensor_id;sensor_type;location;lat;lon;timestamp;P1;durP1;ratioP1;P2;durP2;ratioP2
32026;SDS011;18543;50.848;4.596;2023-06-19T00:01:35;5.95;;;5.00;;
32026;SDS011;18543;50.848;4.596;2023-06-19T00:04:02;5.80;;;4.93;;
32026;SDS011;18543;50.848;4.596;2023-06-19T00:06:29;5.70;;;5.10;;
32026;SDS011;18543;50.848;4.596;2023-06-19T00:08:57;6.05;;;5.43;;
32026;SDS011;18543;50.848;4.596;2023-06-19T00:11:26;5.43;;;4.82;;
32026;SDS011;18543;50.848;4.596;2023-06-19T00:13:54;5.85;;;5.35;;
32026;SDS011;18543;50.848;4.596;2023-06-19T00:16:21;5.57;;;5.07;;
32026;SDS011;18543;50.848;4.596;2023-06-19T00:18:51;5.40;;;4.90;;
32026;SDS011;18543;50.848;4.596;2023-06-19T00:21:22;5.85;;;5.25;;
32026;SDS011;18543;50.848;4.596;2023-06-19T00:23:51;5.32;;;4.82;;
32026;SDS011;18543;50.848;4.596;2023-06-19T00:28:49;7.10;;;5.40;;
32026;SDS011;18543;50.848;4.596;2023-06-19T00:31:16;5.93;;;4.97;;
32026;SDS011;18543;50.848;4.596;2023-06-19T00:33:44;5.32;;;4.82;;
32026;SDS011;18543;50.848;4.596;2023-06-19T00:36:14;5.53;;;4.90;;
32026;SDS011;18543;50.848;4.596;2023-06-19T00:38:42;5.60;;;5.00;;
32026;SDS011;18543;50.848;4.596;2023-06-19T00:41:09;6.60;;;4.97;;
32026;SDS011;18543;50.848;4.596;2023-06-19T00:43:37;5.93;;;5.28;;
32026;SDS011;18543;50.848;4.596;2023-06-19T00:46:04;5.72;;;4.95;;
32026;SDS011;18543;50.848;4.596;2023-06-19T00:48:32;5.38;;;4.55;;
32026;SDS011;18543;50.848;4.596;2023-06-19T00:53:27;5.15;;;4.65;;
32026;SDS011;18543;50.848;4.596;2023-06-19T00:55:55;5.50;;;5.00;;
32026;SDS011;18543;50.848;4.596;2023-06-19T00:58:23;5.35;;;4.57;;
32026;SDS011;18543;50.848;4.596;2023-06-19T01:00:51;6.03;;;5.32;;
32026;SDS011;18543;50.848;4.596;2023-06-19T01:03:34;5.70;;;5.07;;
32026;SDS011;18543;50.848;4.596;2023-06-19T01:06:02;5.30;;;4.80;;
32026;SDS011;18543;50.848;4.596;2023-06-19T01:08:50;5.70;;;5.05;;
32026;SDS011;18543;50.848;4.596;2023-06-19T01:11:21;5.03;;;4.60;;
32026;SDS011;18543;50.848;4.596;2023-06-19T01:13:54;5.38;;;4.88;;
32026;SDS011;18543;50.848;4.596;2023-06-19T01:16:24;5.10;;;4.22;;
32026;SDS011;18543;50.848;4.596;2023-06-19T01:18:52;5.47;;;4.50;;
32026;SDS011;18543;50.848;4.596;2023-06-19T01:21:20;4.90;;;4.50;;
32026;SDS011;18543;50.848;4.596;2023-06-19T01:23:47;5.60;;;4.88;;
32026;SDS011;18543;50.848;4.596;2023-06-19T01:26:15;5.25;;;4.75;;
32026;SDS011;18543;50.848;4.596;2023-06-19T01:28:43;4.65;;;4.25;;
32026;SDS011;18543;50.848;4.596;2023-06-19T01:31:16;4.90;;;4.50;;
32026;SDS011;18543;50.848;4.596;2023-06-19T01:33:45;5.20;;;4.70;;
32026;SDS011;18543;50.848;4.596;2023-06-19T01:36:14;5.07;;;4.57;;
32026;SDS011;18543;50.848;4.596;2023-06-19T01:38:41;5.93;;;4.60;;
32026;SDS011;18543;50.848;4.596;2023-06-19T01:41:10;4.70;;;4.22;;
32026;SDS011;18543;50.848;4.596;2023-06-19T01:43:41;5.07;;;4.57;;
32026;SDS011;18543;50.848;4.596;2023-06-19T01:48:37;5.18;;;4.68;;
32026;SDS011;18543;50.848;4.596;2023-06-19T01:51:05;5.10;;;4.60;;
32026;SDS011;18543;50.848;4.596;2023-06-19T01:53:32;5.30;;;4.35;;
32026;SDS011;18543;50.848;4.596;2023-06-19T01:56:01;6.10;;;4.68;;
32026;SDS011;18543;50.848;4.596;2023-06-19T01:58:28;7.55;;;4.93;;
32026;SDS011;18543;50.848;4.596;2023-06-19T02:00:55;4.85;;;4.45;;
32026;SDS011;18543;50.848;4.596;2023-06-19T02:03:23;5.13;;;4.63;;
32026;SDS011;18543;50.848;4.596;2023-06-19T02:05:51;5.22;;;4.30;;
32026;SDS011;18543;50.848;4.596;2023-06-19T02:08:21;5.30;;;4.80;;
32026;SDS011;18543;50.848;4.596;2023-06-19T02:10:48;4.93;;;4.43;;
32026;SDS011;18543;50.848;4.596;2023-06-19T02:13:15;5.07;;;4.57;;
32026;SDS011;18543;50.848;4.596;2023-06-19T02:15:43;4.88;;;4.47;;
32026;SDS011;18543;50.848;4.596;2023-06-19T02:18:10;4.47;;;4.07;;
32026;SDS011;18543;50.848;4.596;2023-06-19T02:20:37;4.60;;;4.20;;
32026;SDS011;18543;50.848;4.596;2023-06-19T02:23:05;4.63;;;4.22;;
32026;SDS011;18543;50.848;4.596;2023-06-19T02:25:32;4.57;;;4.18;;
32026;SDS011;18543;50.848;4.596;2023-06-19T02:28:01;4.80;;;4.30;;
32026;SDS011;18543;50.848;4.596;2023-06-19T02:30:29;4.95;;;4.38;;
32026;SDS011;18543;50.848;4.596;2023-06-19T02:32:57;4.68;;;4.10;;
32026;SDS011;18543;50.848;4.596;2023-06-19T02:35:24;4.75;;;4.35;;
32026;SDS011;18543;50.848;4.596;2023-06-19T02:37:51;4.90;;;4.40;;
32026;SDS011;18543;50.848;4.596;2023-06-19T02:40:19;4.50;;;4.13;;
32026;SDS011;18543;50.848;4.596;2023-06-19T02:42:46;4.35;;;3.95;;
32026;SDS011;18543;50.848;4.596;2023-06-19T02:45:16;4.60;;;4.20;;
32026;SDS011;18543;50.848;4.596;2023-06-19T02:47:43;5.10;;;4.30;;
32026;SDS011;18543;50.848;4.596;2023-06-19T02:50:10;4.57;;;4.18;;
32026;SDS011;18543;50.848;4.596;2023-06-19T02:52:38;5.57;;;4.25;;
32026;SDS011;18543;50.848;4.596;2023-06-19T02:55:05;5.88;;;4.35;;
32026;SDS011;18543;50.848;4.596;2023-06-19T02:57:33;5.10;;;4.28;;
32026;SDS011;18543;50.848;4.596;2023-06-19T03:00:01;4.85;;;4.05;;
32026;SDS011;18543;50.848;4.596;2023-06-19T03:02:29;4.60;;;4.20;;
32026;SDS011;18543;50.848;4.596;2023-06-19T03:04:57;5.68;;;4.30;;
32026;SDS011;18543;50.848;4.596;2023-06-19T03:07:24;4.57;;;4.18;;
32026;SDS011;18543;50.848;4.596;2023-06-19T03:09:54;5.07;;;4.43;;
32026;SDS011;18543;50.848;4.596;2023-06-19T03:12:22;4.30;;;3.90;;
32026;SDS011;18543;50.848;4.596;2023-06-19T03:14:49;4.20;;;3.90;;
32026;SDS011;18543;50.848;4.596;2023-06-19T03:17:16;4.43;;;4.03;;
32026;SDS011;18543;50.848;4.596;2023-06-19T03:19:43;4.15;;;3.75;;
32026;SDS011;18543;50.848;4.596;2023-06-19T03:22:11;4.43;;;4.03;;
32026;SDS011;18543;50.848;4.596;2023-06-19T03:24:38;4.63;;;4.22;;
32026;SDS011;18543;50.848;4.596;2023-06-19T03:27:06;4.22;;;3.83;;
32026;SDS011;18543;50.848;4.596;2023-06-19T03:29:33;4.68;;;4.20;;
32026;SDS011;18543;50.848;4.596;2023-06-19T03:32:00;4.30;;;3.90;;
32026;SDS011;18543;50.848;4.596;2023-06-19T03:34:27;4.78;;;4.00;;
32026;SDS011;18543;50.848;4.596;2023-06-19T03:36:58;4.35;;;3.95;;
32026;SDS011;18543;50.848;4.596;2023-06-19T03:39:25;4.20;;;3.80;;
32026;SDS011;18543;50.848;4.596;2023-06-19T03:41:55;4.53;;;3.80;;
32026;SDS011;18543;50.848;4.596;2023-06-19T03:44:22;5.38;;;3.80;;
32026;SDS011;18543;50.848;4.596;2023-06-19T03:46:49;4.43;;;3.95;;
32026;SDS011;18543;50.848;4.596;2023-06-19T03:51:44;4.20;;;3.80;;
32026;SDS011;18543;50.848;4.596;2023-06-19T03:54:12;4.00;;;3.60;;
32026;SDS011;18543;50.848;4.596;2023-06-19T03:56:39;4.50;;;4.10;;
32026;SDS011;18543;50.848;4.596;2023-06-19T03:59:06;4.00;;;3.60;;
32026;SDS011;18543;50.848;4.596;2023-06-19T04:01:33;4.38;;;3.95;;
32026;SDS011;18543;50.848;4.596;2023-06-19T04:04:01;4.60;;;4.20;;
32026;SDS011;18543;50.848;4.596;2023-06-19T04:06:30;5.07;;;4.30;;
32026;SDS011;18543;50.848;4.596;2023-06-19T04:08:58;3.90;;;3.60;;
32026;SDS011;18543;50.848;4.596;2023-06-19T04:11:25;4.13;;;3.72;;
32026;SDS011;18543;50.848;4.596;2023-06-19T04:13:52;4.93;;;3.90;;
32026;SDS011;18543;50.848;4.596;2023-06-19T04:16:19;4.40;;;4.00;;
32026;SDS011;18543;50.848;4.596;2023-06-19T04:18:47;4.15;;;3.72;;
32026;SDS011;18543;50.848;4.596;2023-06-19T04:21:14;4.10;;;3.70;;
32026;SDS011;18543;50.848;4.596;2023-06-19T04:23:42;4.68;;;3.75;;
32026;SDS011;18543;50.848;4.596;2023-06-19T04:26:09;4.15;;;3.75;;
32026;SDS011;18543;50.848;4.596;2023-06-19T04:28:37;4.07;;;3.70;;
32026;SDS011;18543;50.848;4.596;2023-06-19T04:31:05;4.72;;;4.10;;
32026;SDS011;18543;50.848;4.596;2023-06-19T04:33:32;4.10;;;3.70;;
32026;SDS011;18543;50.848;4.596;2023-06-19T04:36:01;4.35;;;3.95;;
32026;SDS011;18543;50.848;4.596;2023-06-19T04:38:28;4.25;;;3.80;;
32026;SDS011;18543;50.848;4.596;2023-06-19T04:40:57;4.00;;;3.60;;
32026;SDS011;18543;50.848;4.596;2023-06-19T04:43:25;4.07;;;3.72;;
32026;SDS011;18543;50.848;4.596;2023-06-19T04:45:52;4.70;;;3.97;;
32026;SDS011;18543;50.848;4.596;2023-06-19T04:48:20;4.07;;;3.67;;
32026;SDS011;18543;50.848;4.596;2023-06-19T04:50:51;4.38;;;3.97;;
32026;SDS011;18543;50.848;4.596;2023-06-19T04:55:46;4.35;;;3.83;;
32026;SDS011;18543;50.848;4.596;2023-06-19T04:58:13;4.55;;;3.70;;
32026;SDS011;18543;50.848;4.596;2023-06-19T05:00:46;4.18;;;3.72;;
32026;SDS011;18543;50.848;4.596;2023-06-19T05:03:17;4.28;;;3.88;;
32026;SDS011;18543;50.848;4.596;2023-06-19T05:05:45;4.05;;;3.65;;
32026;SDS011;18543;50.848;4.596;2023-06-19T05:08:13;4.13;;;3.67;;
32026;SDS011;18543;50.848;4.596;2023-06-19T05:10:40;4.00;;;3.67;;
32026;SDS011;18543;50.848;4.596;2023-06-19T05:13:11;4.22;;;3.80;;
32026;SDS011;18543;50.848;4.596;2023-06-19T05:15:38;3.80;;;3.50;;
32026;SDS011;18543;50.848;4.596;2023-06-19T05:18:06;4.20;;;3.80;;
32026;SDS011;18543;50.848;4.596;2023-06-19T05:20:33;3.95;;;3.63;;
32026;SDS011;18543;50.848;4.596;2023-06-19T05:23:03;4.60;;;3.67;;
32026;SDS011;18543;50.848;4.596;2023-06-19T05:25:30;4.15;;;3.63;;
32026;SDS011;18543;50.848;4.596;2023-06-19T05:27:58;4.07;;;3.67;;
32026;SDS011;18543;50.848;4.596;2023-06-19T05:30:25;3.80;;;3.40;;
32026;SDS011;18543;50.848;4.596;2023-06-19T05:32:52;3.92;;;3.53;;
32026;SDS011;18543;50.848;4.596;2023-06-19T05:35:22;3.60;;;3.30;;
32026;SDS011;18543;50.848;4.596;2023-06-19T05:37:49;4.57;;;3.63;;
32026;SDS011;18543;50.848;4.596;2023-06-19T05:40:17;4.38;;;3.97;;
32026;SDS011;18543;50.848;4.596;2023-06-19T05:42:44;3.60;;;3.30;;
32026;SDS011;18543;50.848;4.596;2023-06-19T05:45:11;4.03;;;3.72;;
32026;SDS011;18543;50.848;4.596;2023-06-19T05:47:39;3.90;;;3.53;;
32026;SDS011;18543;50.848;4.596;2023-06-19T05:50:06;3.70;;;3.40;;
32026;SDS011;18543;50.848;4.596;2023-06-19T05:52:34;4.63;;;3.78;;
32026;SDS011;18543;50.848;4.596;2023-06-19T05:55:01;4.07;;;3.67;;
32026;SDS011;18543;50.848;4.596;2023-06-19T05:57:29;3.80;;;3.50;;
32026;SDS011;18543;50.848;4.596;2023-06-19T05:59:56;3.45;;;3.15;;
32026;SDS011;18543;50.848;4.596;2023-06-19T06:02:23;4.00;;;3.60;;
32026;SDS011;18543;50.848;4.596;2023-06-19T06:04:52;3.95;;;3.55;;
32026;SDS011;18543;50.848;4.596;2023-06-19T06:07:19;3.63;;;3.33;;
32026;SDS011;18543;50.848;4.596;2023-06-19T06:09:47;3.85;;;3.45;;
32026;SDS011;18543;50.848;4.596;2023-06-19T06:12:14;3.80;;;3.50;;
32026;SDS011;18543;50.848;4.596;2023-06-19T06:14:41;7.57;;;5.10;;
32026;SDS011;18543;50.848;4.596;2023-06-19T06:17:10;7.68;;;5.95;;
32026;SDS011;18543;50.848;4.596;2023-06-19T06:19:38;8.15;;;6.50;;
32026;SDS011;18543;50.848;4.596;2023-06-19T06:22:05;7.80;;;6.20;;
32026;SDS011;18543;50.848;4.596;2023-06-19T06:24:33;7.43;;;5.82;;
32026;SDS011;18543;50.848;4.596;2023-06-19T06:27:00;8.70;;;7.07;;
32026;SDS011;18543;50.848;4.596;2023-06-19T06:29:28;7.95;;;6.55;;
32026;SDS011;18543;50.848;4.596;2023-06-19T06:32:02;9.05;;;6.85;;
32026;SDS011;18543;50.848;4.596;2023-06-19T06:34:31;9.43;;;6.15;;
32026;SDS011;18543;50.848;4.596;2023-06-19T06:36:59;9.45;;;6.40;;
32026;SDS011;18543;50.848;4.596;2023-06-19T06:39:32;8.98;;;6.47;;
32026;SDS011;18543;50.848;4.596;2023-06-19T06:41:59;10.20;;;7.40;;
32026;SDS011;18543;50.848;4.596;2023-06-19T06:44:29;10.35;;;7.65;;
32026;SDS011;18543;50.848;4.596;2023-06-19T06:46:56;10.70;;;7.32;;
32026;SDS011;18543;50.848;4.596;2023-06-19T06:49:23;11.30;;;6.88;;
32026;SDS011;18543;50.848;4.596;2023-06-19T06:51:51;10.15;;;7.90;;
32026;SDS011;18543;50.848;4.596;2023-06-19T06:54:23;10.88;;;7.07;;
32026;SDS011;18543;50.848;4.596;2023-06-19T06:56:51;10.60;;;7.50;;
32026;SDS011;18543;50.848;4.596;2023-06-19T06:59:22;11.10;;;8.07;;
32026;SDS011;18543;50.848;4.596;2023-06-19T07:01:50;9.88;;;8.13;;
32026;SDS011;18543;50.848;4.596;2023-06-19T07:04:17;9.25;;;7.40;;
32026;SDS011;18543;50.848;4.596;2023-06-19T07:06:44;8.20;;;7.38;;
32026;SDS011;18543;50.848;4.596;2023-06-19T07:09:12;8.57;;;6.97;;
32026;SDS011;18543;50.848;4.596;2023-06-19T07:11:39;8.48;;;7.30;;
32026;SDS011;18543;50.848;4.596;2023-06-19T07:14:06;14.10;;;8.13;;
32026;SDS011;18543;50.848;4.596;2023-06-19T07:16:34;9.80;;;7.32;;
32026;SDS011;18543;50.848;4.596;2023-06-19T07:19:01;11.68;;;8.00;;
32026;SDS011;18543;50.848;4.596;2023-06-19T07:21:30;7.72;;;6.90;;
32026;SDS011;18543;50.848;4.596;2023-06-19T07:23:57;7.40;;;6.47;;
32026;SDS011;18543;50.848;4.596;2023-06-19T07:26:26;12.50;;;7.65;;
32026;SDS011;18543;50.848;4.596;2023-06-19T07:28:53;13.18;;;7.82;;
32026;SDS011;18543;50.848;4.596;2023-06-19T07:31:20;9.25;;;7.60;;
32026;SDS011;18543;50.848;4.596;2023-06-19T07:33:48;9.38;;;7.60;;
32026;SDS011;18543;50.848;4.596;2023-06-19T07:36:15;9.68;;;7.85;;
32026;SDS011;18543;50.848;4.596;2023-06-19T07:38:43;9.50;;;7.78;;
32026;SDS011;18543;50.848;4.596;2023-06-19T07:41:10;11.07;;;8.43;;
32026;SDS011;18543;50.848;4.596;2023-06-19T07:43:38;10.43;;;7.22;;
32026;SDS011;18543;50.848;4.596;2023-06-19T07:46:05;7.75;;;6.30;;
32026;SDS011;18543;50.848;4.596;2023-06-19T07:48:32;9.73;;;8.02;;
32026;SDS011;18543;50.848;4.596;2023-06-19T07:51:00;10.32;;;7.60;;
32026;SDS011;18543;50.848;4.596;2023-06-19T07:53:27;13.13;;;8.40;;
32026;SDS011;18543;50.848;4.596;2023-06-19T07:55:54;11.40;;;7.97;;
32026;SDS011;18543;50.848;4.596;2023-06-19T07:58:25;9.02;;;7.60;;
32026;SDS011;18543;50.848;4.596;2023-06-19T08:00:52;11.27;;;7.45;;
32026;SDS011;18543;50.848;4.596;2023-06-19T08:03:19;11.75;;;8.13;;
32026;SDS011;18543;50.848;4.596;2023-06-19T08:05:48;9.50;;;7.05;;
32026;SDS011;18543;50.848;4.596;2023-06-19T08:08:15;9.07;;;7.05;;
32026;SDS011;18543;50.848;4.596;2023-06-19T08:10:42;10.13;;;7.53;;
32026;SDS011;18543;50.848;4.596;2023-06-19T08:13:10;9.98;;;6.90;;
32026;SDS011;18543;50.848;4.596;2023-06-19T08:15:37;8.00;;;6.78;;
32026;SDS011;18543;50.848;4.596;2023-06-19T08:18:05;9.80;;;6.38;;
32026;SDS011;18543;50.848;4.596;2023-06-19T08:20:32;10.40;;;6.82;;
32026;SDS011;18543;50.848;4.596;2023-06-19T08:22:59;9.32;;;6.60;;
32026;SDS011;18543;50.848;4.596;2023-06-19T08:25:28;9.02;;;7.07;;
32026;SDS011;18543;50.848;4.596;2023-06-19T08:27:55;10.27;;;7.82;;
32026;SDS011;18543;50.848;4.596;2023-06-19T08:30:22;10.60;;;6.78;;
32026;SDS011;18543;50.848;4.596;2023-06-19T08:32:50;9.48;;;6.38;;
32026;SDS011;18543;50.848;4.596;2023-06-19T08:35:17;9.43;;;7.28;;
32026;SDS011;18543;50.848;4.596;2023-06-19T08:37:45;11.40;;;6.35;;
32026;SDS011;18543;50.848;4.596;2023-06-19T08:40:12;11.32;;;7.82;;
32026;SDS011;18543;50.848;4.596;2023-06-19T08:42:39;10.02;;;7.22;;
32026;SDS011;18543;50.848;4.596;2023-06-19T08:45:09;8.63;;;7.30;;
32026;SDS011;18543;50.848;4.596;2023-06-19T08:47:37;7.97;;;6.85;;
32026;SDS011;18543;50.848;4.596;2023-06-19T08:50:07;11.05;;;7.25;;
32026;SDS011;18543;50.848;4.596;2023-06-19T08:52:34;9.10;;;7.07;;
32026;SDS011;18543;50.848;4.596;2023-06-19T08:55:01;10.97;;;7.27;;
32026;SDS011;18543;50.848;4.596;2023-06-19T08:57:32;11.38;;;7.22;;
32026;SDS011;18543;50.848;4.596;2023-06-19T09:00:00;14.15;;;6.93;;
32026;SDS011;18543;50.848;4.596;2023-06-19T09:02:36;9.75;;;7.55;;
32026;SDS011;18543;50.848;4.596;2023-06-19T09:05:10;9.00;;;7.05;;
32026;SDS011;18543;50.848;4.596;2023-06-19T09:07:40;11.10;;;7.47;;
32026;SDS011;18543;50.848;4.596;2023-06-19T09:10:12;11.45;;;7.32;;
32026;SDS011;18543;50.848;4.596;2023-06-19T09:12:41;9.32;;;7.35;;
32026;SDS011;18543;50.848;4.596;2023-06-19T09:15:12;13.90;;;7.70;;
32026;SDS011;18543;50.848;4.596;2023-06-19T09:17:40;12.30;;;7.50;;
32026;SDS011;18543;50.848;4.596;2023-06-19T09:20:10;10.48;;;7.47;;
32026;SDS011;18543;50.848;4.596;2023-06-19T09:22:38;10.23;;;7.25;;
32026;SDS011;18543;50.848;4.596;2023-06-19T09:25:05;11.68;;;8.27;;
32026;SDS011;18543;50.848;4.596;2023-06-19T09:27:36;10.75;;;8.02;;
32026;SDS011;18543;50.848;4.596;2023-06-19T09:30:04;11.02;;;7.90;;
32026;SDS011;18543;50.848;4.596;2023-06-19T09:32:32;10.93;;;8.80;;
32026;SDS011;18543;50.848;4.596;2023-06-19T09:35:03;9.38;;;7.72;;
32026;SDS011;18543;50.848;4.596;2023-06-19T09:37:31;8.93;;;7.93;;
32026;SDS011;18543;50.848;4.596;2023-06-19T09:39:59;12.73;;;8.60;;
32026;SDS011;18543;50.848;4.596;2023-06-19T09:42:34;10.85;;;7.68;;
32026;SDS011;18543;50.848;4.596;2023-06-19T09:50:04;11.10;;;8.52;;
32026;SDS011;18543;50.848;4.596;2023-06-19T09:52:32;11.77;;;8.75;;
32026;SDS011;18543;50.848;4.596;2023-06-19T09:57:28;10.85;;;8.52;;
32026;SDS011;18543;50.848;4.596;2023-06-19T09:59:58;11.38;;;8.75;;
32026;SDS011;18543;50.848;4.596;2023-06-19T10:02:34;11.80;;;8.95;;
32026;SDS011;18543;50.848;4.596;2023-06-19T10:05:02;12.75;;;10.30;;
32026;SDS011;18543;50.848;4.596;2023-06-19T10:07:34;13.20;;;9.88;;
32026;SDS011;18543;50.848;4.596;2023-06-19T10:12:44;12.25;;;10.00;;
32026;SDS011;18543;50.848;4.596;2023-06-19T10:15:13;13.23;;;9.90;;
32026;SDS011;18543;50.848;4.596;2023-06-19T10:17:45;13.75;;;10.38;;
32026;SDS011;18543;50.848;4.596;2023-06-19T10:20:28;15.48;;;11.55;;
32026;SDS011;18543;50.848;4.596;2023-06-19T10:23:03;13.52;;;10.85;;
32026;SDS011;18543;50.848;4.596;2023-06-19T10:25:35;16.30;;;11.02;;
32026;SDS011;18543;50.848;4.596;2023-06-19T10:28:04;12.65;;;11.00;;
32026;SDS011;18543;50.848;4.596;2023-06-19T10:30:34;15.70;;;10.77;;
32026;SDS011;18543;50.848;4.596;2023-06-19T10:33:02;15.90;;;9.57;;
32026;SDS011;18543;50.848;4.596;2023-06-19T10:35:36;14.60;;;10.75;;
32026;SDS011;18543;50.848;4.596;2023-06-19T10:38:05;12.13;;;9.88;;
32026;SDS011;18543;50.848;4.596;2023-06-19T10:40:32;11.85;;;9.43;;
32026;SDS011;18543;50.848;4.596;2023-06-19T10:42:59;14.20;;;9.88;;
32026;SDS011;18543;50.848;4.596;2023-06-19T10:45:29;12.30;;;9.02;;
32026;SDS011;18543;50.848;4.596;2023-06-19T10:47:57;12.35;;;9.77;;
32026;SDS011;18543;50.848;4.596;2023-06-19T10:50:25;11.07;;;8.50;;
32026;SDS011;18543;50.848;4.596;2023-06-19T10:52:52;11.43;;;9.15;;
32026;SDS011;18543;50.848;4.596;2023-06-19T10:55:23;12.27;;;10.15;;
32026;SDS011;18543;50.848;4.596;2023-06-19T10:57:50;10.60;;;9.35;;
32026;SDS011;18543;50.848;4.596;2023-06-19T11:00:27;12.88;;;9.73;;
32026;SDS011;18543;50.848;4.596;2023-06-19T11:02:56;11.10;;;8.40;;
32026;SDS011;18543;50.848;4.596;2023-06-19T11:05:24;11.93;;;8.10;;
32026;SDS011;18543;50.848;4.596;2023-06-19T11:10:21;9.90;;;6.80;;
32026;SDS011;18543;50.848;4.596;2023-06-19T11:12:50;11.00;;;7.70;;
32026;SDS011;18543;50.848;4.596;2023-06-19T11:15:20;9.32;;;7.22;;
32026;SDS011;18543;50.848;4.596;2023-06-19T11:17:47;9.45;;;7.32;;
32026;SDS011;18543;50.848;4.596;2023-06-19T11:20:15;9.77;;;6.95;;
32026;SDS011;18543;50.848;4.596;2023-06-19T11:22:42;12.70;;;7.03;;
32026;SDS011;18543;50.848;4.596;2023-06-19T11:25:10;14.68;;;8.05;;
32026;SDS011;18543;50.848;4.596;2023-06-19T11:27:38;18.80;;;7.25;;
32026;SDS011;18543;50.848;4.596;2023-06-19T11:30:06;11.48;;;7.53;;
32026;SDS011;18543;50.848;4.596;2023-06-19T11:35:07;15.68;;;6.95;;
32026;SDS011;18543;50.848;4.596;2023-06-19T11:37:35;11.30;;;6.63;;
32026;SDS011;18543;50.848;4.596;2023-06-19T11:40:02;11.75;;;7.00;;
32026;SDS011;18543;50.848;4.596;2023-06-19T11:42:51;10.30;;;7.10;;
32026;SDS011;18543;50.848;4.596;2023-06-19T11:45:18;10.55;;;6.10;;
32026;SDS011;18543;50.848;4.596;2023-06-19T11:47:46;9.07;;;6.65;;
32026;SDS011;18543;50.848;4.596;2023-06-19T11:50:14;15.23;;;7.30;;
32026;SDS011;18543;50.848;4.596;2023-06-19T11:52:42;16.73;;;7.20;;
32026;SDS011;18543;50.848;4.596;2023-06-19T11:55:11;13.68;;;7.60;;
32026;SDS011;18543;50.848;4.596;2023-06-19T11:57:38;13.18;;;6.90;;
32026;SDS011;18543;50.848;4.596;2023-06-19T12:00:12;13.02;;;6.75;;
32026;SDS011;18543;50.848;4.596;2023-06-19T12:02:40;16.05;;;6.93;;
32026;SDS011;18543;50.848;4.596;2023-06-19T12:05:09;8.00;;;6.43;;
32026;SDS011;18543;50.848;4.596;2023-06-19T12:07:37;9.60;;;6.53;;
32026;SDS011;18543;50.848;4.596;2023-06-19T12:12:36;12.48;;;6.82;;
32026;SDS011;18543;50.848;4.596;2023-06-19T12:15:07;11.02;;;6.45;;
32026;SDS011;18543;50.848;4.596;2023-06-19T12:17:34;12.32;;;6.10;;
32026;SDS011;18543;50.848;4.596;2023-06-19T12:20:02;11.48;;;6.78;;
32026;SDS011;18543;50.848;4.596;2023-06-19T12:22:33;12.18;;;6.45;;
32026;SDS011;18543;50.848;4.596;2023-06-19T12:27:28;9.65;;;6.35;;
32026;SDS011;18543;50.848;4.596;2023-06-19T12:29:55;9.25;;;6.28;;
32026;SDS011;18543;50.848;4.596;2023-06-19T12:32:23;10.68;;;6.40;;
32026;SDS011;18543;50.848;4.596;2023-06-19T12:34:51;11.45;;;6.40;;
32026;SDS011;18543;50.848;4.596;2023-06-19T12:37:20;8.43;;;5.80;;
32026;SDS011;18543;50.848;4.596;2023-06-19T12:39:49;7.72;;;5.90;;
32026;SDS011;18543;50.848;4.596;2023-06-19T12:42:18;9.70;;;6.10;;
32026;SDS011;18543;50.848;4.596;2023-06-19T12:44:46;9.60;;;6.65;;
32026;SDS011;18543;50.848;4.596;2023-06-19T12:47:13;18.08;;;6.47;;
32026;SDS011;18543;50.848;4.596;2023-06-19T12:49:43;10.00;;;6.15;;
32026;SDS011;18543;50.848;4.596;2023-06-19T12:52:10;12.57;;;6.03;;
32026;SDS011;18543;50.848;4.596;2023-06-19T12:54:38;9.00;;;5.88;;
32026;SDS011;18543;50.848;4.596;2023-06-19T12:57:08;10.25;;;6.38;;
32026;SDS011;18543;50.848;4.596;2023-06-19T12:59:35;9.40;;;5.82;;
32026;SDS011;18543;50.848;4.596;2023-06-19T13:02:03;14.70;;;5.88;;
32026;SDS011;18543;50.848;4.596;2023-06-19T13:04:30;7.28;;;5.82;;
32026;SDS011;18543;50.848;4.596;2023-06-19T13:06:58;10.88;;;5.30;;
32026;SDS011;18543;50.848;4.596;2023-06-19T13:09:25;10.00;;;5.70;;
32026;SDS011;18543;50.848;4.596;2023-06-19T13:11:52;7.30;;;5.17;;
32026;SDS011;18543;50.848;4.596;2023-06-19T13:14:22;10.25;;;5.53;;
32026;SDS011;18543;50.848;4.596;2023-06-19T13:16:49;8.48;;;5.75;;
32026;SDS011;18543;50.848;4.596;2023-06-19T13:19:17;5.85;;;4.85;;
32026;SDS011;18543;50.848;4.596;2023-06-19T13:21:44;9.48;;;5.22;;
32026;SDS011;18543;50.848;4.596;2023-06-19T13:24:12;14.50;;;5.43;;
32026;SDS011;18543;50.848;4.596;2023-06-19T13:26:42;9.95;;;5.50;;
32026;SDS011;18543;50.848;4.596;2023-06-19T13:29:10;16.77;;;5.50;;
32026;SDS011;18543;50.848;4.596;2023-06-19T13:31:38;11.40;;;5.32;;
32026;SDS011;18543;50.848;4.596;2023-06-19T13:34:08;14.77;;;5.43;;
32026;SDS011;18543;50.848;4.596;2023-06-19T13:36:35;8.35;;;5.03;;
32026;SDS011;18543;50.848;4.596;2023-06-19T13:39:02;7.70;;;4.72;;
32026;SDS011;18543;50.848;4.596;2023-06-19T13:44:00;11.15;;;5.20;;
32026;SDS011;18543;50.848;4.596;2023-06-19T13:46:28;8.15;;;4.95;;
32026;SDS011;18543;50.848;4.596;2023-06-19T13:48:58;6.82;;;4.68;;
32026;SDS011;18543;50.848;4.596;2023-06-19T13:51:25;6.20;;;4.40;;
32026;SDS011;18543;50.848;4.596;2023-06-19T13:53:52;5.47;;;4.60;;
32026;SDS011;18543;50.848;4.596;2023-06-19T13:58:49;6.13;;;4.60;;
32026;SDS011;18543;50.848;4.596;2023-06-19T14:01:17;7.18;;;4.78;;
32026;SDS011;18543;50.848;4.596;2023-06-19T14:03:46;6.75;;;4.78;;
32026;SDS011;18543;50.848;4.596;2023-06-19T14:06:14;8.45;;;4.90;;
32026;SDS011;18543;50.848;4.596;2023-06-19T14:08:41;6.72;;;4.53;;
32026;SDS011;18543;50.848;4.596;2023-06-19T14:11:09;6.03;;;4.60;;
32026;SDS011;18543;50.848;4.596;2023-06-19T14:13:36;6.00;;;4.28;;
32026;SDS011;18543;50.848;4.596;2023-06-19T14:16:03;5.20;;;4.00;;
32026;SDS011;18543;50.848;4.596;2023-06-19T14:18:31;5.75;;;4.20;;
32026;SDS011;18543;50.848;4.596;2023-06-19T14:20:59;7.82;;;4.38;;
32026;SDS011;18543;50.848;4.596;2023-06-19T14:23:26;7.93;;;4.20;;
32026;SDS011;18543;50.848;4.596;2023-06-19T14:25:54;5.22;;;4.43;;
32026;SDS011;18543;50.848;4.596;2023-06-19T14:28:24;4.65;;;4.20;;
32026;SDS011;18543;50.848;4.596;2023-06-19T14:30:51;5.30;;;4.00;;
32026;SDS011;18543;50.848;4.596;2023-06-19T14:33:18;8.75;;;4.05;;
32026;SDS011;18543;50.848;4.596;2023-06-19T14:35:46;6.20;;;4.15;;
32026;SDS011;18543;50.848;4.596;2023-06-19T14:38:19;8.30;;;4.18;;
32026;SDS011;18543;50.848;4.596;2023-06-19T14:40:46;6.28;;;4.35;;
32026;SDS011;18543;50.848;4.596;2023-06-19T14:43:14;5.88;;;3.70;;
32026;SDS011;18543;50.848;4.596;2023-06-19T14:45:41;5.50;;;4.00;;
32026;SDS011;18543;50.848;4.596;2023-06-19T14:48:09;7.97;;;4.10;;
32026;SDS011;18543;50.848;4.596;2023-06-19T14:50:36;7.72;;;3.90;;
32026;SDS011;18543;50.848;4.596;2023-06-19T14:53:03;6.25;;;3.60;;
32026;SDS011;18543;50.848;4.596;2023-06-19T14:55:31;7.18;;;4.15;;
32026;SDS011;18543;50.848;4.596;2023-06-19T14:57:58;4.80;;;3.38;;
32026;SDS011;18543;50.848;4.596;2023-06-19T15:00:25;5.57;;;4.07;;
32026;SDS011;18543;50.848;4.596;2023-06-19T15:02:53;8.32;;;3.72;;
32026;SDS011;18543;50.848;4.596;2023-06-19T15:05:22;6.40;;;3.63;;
32026;SDS011;18543;50.848;4.596;2023-06-19T15:07:49;6.63;;;3.53;;
32026;SDS011;18543;50.848;4.596;2023-06-19T15:10:17;6.10;;;3.60;;
32026;SDS011;18543;50.848;4.596;2023-06-19T15:12:44;7.00;;;3.70;;
32026;SDS011;18543;50.848;4.596;2023-06-19T15:15:11;5.72;;;3.47;;
32026;SDS011;18543;50.848;4.596;2023-06-19T15:17:39;5.47;;;3.67;;
32026;SDS011;18543;50.848;4.596;2023-06-19T15:20:06;6.55;;;3.75;;
32026;SDS011;18543;50.848;4.596;2023-06-19T15:22:35;6.75;;;3.67;;
32026;SDS011;18543;50.848;4.596;2023-06-19T15:25:05;5.05;;;3.50;;
32026;SDS011;18543;50.848;4.596;2023-06-19T15:27:33;5.45;;;3.72;;